Time;durP1;ratioP1;P1;durP2;ratioP2;P2;SDS_P1;SDS_P2;PMS_P1;PMS_P2;Temp;Humidity;BMP_temperature;BMP_pressure;BME280_temperature;BME280_humidity;BME280_pressure;Samples;Min_cycle;Max_cycle;Signal;HPM_P1;HPM_P2
2023/09/02 00:03:35;;;;;;;7.80;4.60;;;;;;;;;;103932;1288;544883;-79
2023/09/02 00:07:23;;;;;;;9.00;4.50;;;;;;;;;;103584;1292;547938;-79
2023/09/02 00:10:54;;;;;;;8.40;4.80;;;;;;;;;;104072;1289;545813;-79
2023/09/02 00:14:32;;;;;;;9.30;5.70;;;;;;;;;;103796;1289;546405;-77
2023/09/02 00:18:15;;;;;;;8.30;4.80;;;;;;;;;;103355;1295;547768;-77
2023/09/02 00:21:47;;;;;;;9.10;5.10;;;;;;;;;;103769;1291;545089;-77
2023/09/02 00:25:30;;;;;;;9.00;5.30;;;;;;;;;;103601;1292;548289;-79
2023/09/02 00:29:08;;;;;;;8.90;5.10;;;;;;;;;;103660;1292;547859;-79
2023/09/02 00:32:39;;;;;;;8.90;5.40;;;;;;;;;;103809;1302;545436;-77
2023/09/02 00:36:22;;;;;;;9.00;4.90;;;;;;;;;;103593;1296;548145;-77
2023/09/02 00:40:00;;;;;;;10.00;5.30;;;;;;;;;;103538;1292;547907;-77
2023/09/02 00:43:38;;;;;;;10.40;5.20;;;;;;;;;;103806;1296;547867;-78
2023/09/02 00:47:09;;;;;;;9.00;4.80;;;;;;;;;;103813;1291;545788;-76
2023/09/02 00:50:52;;;;;;;8.70;5.10;;;;;;;;;;103568;1292;548105;-77
2023/09/02 00:54:30;;;;;;;7.50;4.60;;;;;;;;;;103552;1295;548485;-77
2023/09/02 00:58:02;;;;;;;10.70;5.30;;;;;;;;;;103929;1290;544975;-77
2023/09/02 01:01:45;;;;;;;8.00;4.80;;;;;;;;;;103621;1289;547970;-77
2023/09/02 01:05:22;;;;;;;8.40;4.90;;;;;;;;;;103622;1295;547922;-78
2023/09/02 01:09:00;;;;;;;7.80;4.40;;;;;;;;;;103697;1292;548154;-80
2023/09/02 01:12:37;;;;;;;9.20;5.20;;;;;;;;;;103703;1290;548010;-78
2023/09/02 01:16:14;;;;;;;9.00;5.60;;;;;;;;;;103650;1295;547797;-77
2023/09/02 01:19:49;;;;;;;9.20;5.90;;;;;;;;;;103622;1291;547988;-77
2023/09/02 01:23:33;;;;;;;10.10;5.60;;;;;;;;;;103762;1289;545072;-76
2023/09/02 01:27:15;;;;;;;9.20;6.10;;;;;;;;;;103820;1289;548139;-80
2023/09/02 01:30:39;;;;;;;10.70;5.80;;;;;;;;;;104056;1286;545367;-80
2023/09/02 01:34:23;;;;;;;8.50;5.10;;;;;;;;;;103676;1289;547999;-80
2023/09/02 01:37:55;;;;;;;8.80;4.80;;;;;;;;;;103905;1289;544939;-78
2023/09/02 01:41:31;;;;;;;7.80;4.80;;;;;;;;;;104043;1291;545159;-79
2023/09/02 01:45:16;;;;;;;8.90;4.60;;;;;;;;;;103333;1293;545926;-80
2023/09/02 01:48:52;;;;;;;9.00;4.40;;;;;;;;;;103598;1292;547972;-80
2023/09/02 01:52:24;;;;;;;7.80;4.50;;;;;;;;;;103771;1292;544744;-78
2023/09/02 01:56:07;;;;;;;8.80;4.60;;;;;;;;;;103619;1289;547774;-76
2023/09/02 01:59:44;;;;;;;7.60;4.40;;;;;;;;;;103587;1290;547964;-77
2023/09/02 02:03:28;;;;;;;8.10;4.50;;;;;;;;;;103382;1295;548106;-77
2023/09/02 02:07:01;;;;;;;8.80;4.30;;;;;;;;;;103833;1293;548005;-80
2023/09/02 02:10:32;;;;;;;8.80;4.40;;;;;;;;;;104223;1285;544955;-80
2023/09/02 02:14:08;;;;;;;8.60;4.40;;;;;;;;;;104133;1286;544760;-78
2023/09/02 02:17:52;;;;;;;7.80;4.40;;;;;;;;;;103599;1289;547815;-77
2023/09/02 02:21:29;;;;;;;6.70;3.90;;;;;;;;;;103667;1289;548016;-77
2023/09/02 02:25:01;;;;;;;7.00;3.60;;;;;;;;;;103853;1289;545044;-77
2023/09/02 02:28:44;;;;;;;8.50;3.60;;;;;;;;;;103672;1302;547950;-79
2023/09/02 02:32:16;;;;;;;6.10;3.70;;;;;;;;;;103952;1289;545143;-78
2023/09/02 02:35:59;;;;;;;7.40;3.40;;;;;;;;;;103672;1291;547946;-80
2023/09/02 02:39:30;;;;;;;6.90;3.60;;;;;;;;;;103772;1292;544861;-80
2023/09/02 02:43:14;;;;;;;6.90;3.40;;;;;;;;;;103731;1292;547888;-77
2023/09/02 02:46:51;;;;;;;9.00;3.20;;;;;;;;;;103665;1290;548017;-80
2023/09/02 02:50:29;;;;;;;7.60;3.50;;;;;;;;;;103730;1292;546127;-79
2023/09/02 02:54:01;;;;;;;6.50;2.70;;;;;;;;;;103742;1292;544780;-76
2023/09/02 02:57:39;;;;;;;5.10;2.20;;;;;;;;;;104037;1288;545314;-76
2023/09/02 03:01:15;;;;;;;5.50;2.40;;;;;;;;;;103829;1289;545286;-80
2023/09/02 03:04:58;;;;;;;5.00;2.20;;;;;;;;;;103616;1291;547961;-76
2023/09/02 03:08:36;;;;;;;4.60;1.90;;;;;;;;;;103608;1292;547985;-79
2023/09/02 03:12:13;;;;;;;4.10;2.00;;;;;;;;;;103512;1295;547892;-77
2023/09/02 03:15:49;;;;;;;4.60;2.00;;;;;;;;;;103939;1288;545040;-78
2023/09/02 03:19:25;;;;;;;7.30;2.20;;;;;;;;;;103651;1291;548089;-80
2023/09/02 03:23:06;;;;;;;4.60;1.70;;;;;;;;;;103605;1292;548009;-80
2023/09/02 03:26:38;;;;;;;3.20;1.50;;;;;;;;;;104181;1285;545851;-74
2023/09/02 03:30:15;;;;;;;3.60;1.50;;;;;;;;;;103795;1292;544862;-75
2023/09/02 03:33:53;;;;;;;3.90;1.50;;;;;;;;;;103890;1289;544981;-77
2023/09/02 03:37:30;;;;;;;4.60;1.60;;;;;;;;;;103760;1292;545168;-80
2023/09/02 03:41:17;;;;;;;4.50;1.60;;;;;;;;;;103499;1294;547792;-76
2023/09/02 03:44:51;;;;;;;4.10;1.70;;;;;;;;;;103708;1289;547875;-79
2023/09/02 03:48:28;;;;;;;3.70;1.60;;;;;;;;;;103504;1291;547816;-76
2023/09/02 03:52:00;;;;;;;3.80;1.50;;;;;;;;;;103832;1291;545176;-76
2023/09/02 03:55:38;;;;;;;3.40;1.60;;;;;;;;;;104132;1293;545453;-76
2023/09/02 03:59:20;;;;;;;4.30;1.70;;;;;;;;;;103614;1291;547982;-81
2023/09/02 04:02:52;;;;;;;3.70;1.70;;;;;;;;;;103747;1292;545014;-79
2023/09/02 04:06:37;;;;;;;4.40;1.50;;;;;;;;;;103542;1292;547974;-80
2023/09/02 04:10:03;;;;;;;5.20;1.70;;;;;;;;;;104014;1288;544763;-81
2023/09/02 04:13:46;;;;;;;3.20;1.40;;;;;;;;;;103783;1289;545228;-76
2023/09/02 04:17:29;;;;;;;5.20;1.90;;;;;;;;;;103656;1292;547800;-80
2023/09/02 04:21:09;;;;;;;3.80;1.90;;;;;;;;;;103563;1293;547798;-77
2023/09/02 04:24:38;;;;;;;4.60;1.80;;;;;;;;;;103769;1292;544718;-78
2023/09/02 04:28:21;;;;;;;3.00;1.40;;;;;;;;;;103621;1296;547969;-79
2023/09/02 04:31:53;;;;;;;3.40;1.70;;;;;;;;;;103723;1292;545152;-76
2023/09/02 04:35:38;;;;;;;3.60;1.70;;;;;;;;;;103740;1292;545212;-76
2023/09/02 04:39:14;;;;;;;4.20;1.60;;;;;;;;;;103490;1292;548389;-80
2023/09/02 04:42:51;;;;;;;4.10;2.00;;;;;;;;;;103644;1290;545970;-80
2023/09/02 04:46:24;;;;;;;4.10;1.90;;;;;;;;;;103732;1292;545562;-78
2023/09/02 04:50:06;;;;;;;3.70;1.80;;;;;;;;;;103567;1292;548069;-77
2023/09/02 04:53:38;;;;;;;3.50;1.90;;;;;;;;;;103754;1292;545198;-77
2023/09/02 04:57:15;;;;;;;3.70;1.90;;;;;;;;;;103765;1290;544791;-78
2023/09/02 05:01:09;;;;;;;4.30;1.90;;;;;;;;;;104035;1285;548023;-81
2023/09/02 05:04:30;;;;;;;4.50;1.90;;;;;;;;;;103669;1291;544867;-77
2023/09/02 05:08:13;;;;;;;4.10;1.90;;;;;;;;;;103498;1291;547803;-77
2023/09/02 05:11:46;;;;;;;3.30;1.60;;;;;;;;;;103723;1289;545653;-79
2023/09/02 05:15:28;;;;;;;3.40;1.90;;;;;;;;;;103554;1289;548121;-77
2023/09/02 05:19:03;;;;;;;3.80;1.70;;;;;;;;;;103771;1295;547796;-77
2023/09/02 05:22:43;;;;;;;5.60;2.00;;;;;;;;;;103685;1295;548051;-77
2023/09/02 05:26:21;;;;;;;3.70;1.90;;;;;;;;;;103571;1292;548109;-76
2023/09/02 05:29:49;;;;;;;4.50;2.10;;;;;;;;;;103889;1289;545280;-79
2023/09/02 05:33:31;;;;;;;3.80;1.90;;;;;;;;;;104361;1286;544761;-78
2023/09/02 05:37:14;;;;;;;4.10;1.50;;;;;;;;;;103519;1291;547872;-80
2023/09/02 05:40:53;;;;;;;3.90;2.00;;;;;;;;;;103589;1292;548006;-81
2023/09/02 05:44:24;;;;;;;3.90;2.00;;;;;;;;;;104007;1292;544975;-76
2023/09/02 05:48:27;;;;;;;4.00;1.40;;;;;;;;;;103586;1292;546273;-78
2023/09/02 05:51:39;;;;;;;3.80;1.40;;;;;;;;;;103971;1290;545373;-78
2023/09/02 05:55:22;;;;;;;3.90;1.80;;;;;;;;;;103612;1293;545396;-76
2023/09/02 05:59:00;;;;;;;4.50;1.80;;;;;;;;;;103557;1291;547979;-76
2023/09/02 06:02:37;;;;;;;4.50;2.00;;;;;;;;;;103689;1291;546090;-77
2023/09/02 06:06:12;;;;;;;4.20;1.70;;;;;;;;;;103990;1287;544903;-80
2023/09/02 06:09:46;;;;;;;4.50;1.70;;;;;;;;;;103818;1290;544981;-80
2023/09/02 06:13:24;;;;;;;6.50;2.20;;;;;;;;;;104034;1288;544951;-79
2023/09/02 06:17:07;;;;;;;8.10;2.40;;;;;;;;;;103841;1289;548047;-80
2023/09/02 06:20:39;;;;;;;5.70;2.10;;;;;;;;;;104092;1286;545303;-76
2023/09/02 06:24:22;;;;;;;6.70;2.00;;;;;;;;;;103550;1292;547762;-77
2023/09/02 06:27:59;;;;;;;5.70;2.00;;;;;;;;;;103826;1289;547962;-77
2023/09/02 06:31:37;;;;;;;8.80;2.30;;;;;;;;;;103461;1295;547989;-76
2023/09/02 06:35:15;;;;;;;6.30;2.30;;;;;;;;;;103326;1297;547905;-77
2023/09/02 06:38:52;;;;;;;4.60;1.70;;;;;;;;;;103445;1292;548282;-77
2023/09/02 06:42:29;;;;;;;4.50;1.80;;;;;;;;;;103616;1291;547825;-76
2023/09/02 06:46:17;;;;;;;6.80;2.30;;;;;;;;;;103795;1291;544899;-76
2023/09/02 06:49:44;;;;;;;4.60;1.90;;;;;;;;;;103506;1291;548044;-79
2023/09/02 06:53:35;;;;;;;4.40;1.90;;;;;;;;;;103673;1292;545379;-80
2023/09/02 06:56:54;;;;;;;3.80;1.90;;;;;;;;;;103824;1289;545009;-79
2023/09/02 07:00:36;;;;;;;4.30;1.80;;;;;;;;;;103607;1289;548037;-77
2023/09/02 07:04:08;;;;;;;3.80;1.60;;;;;;;;;;104204;1285;544994;-75
2023/09/02 07:07:45;;;;;;;3.20;1.60;;;;;;;;;;103724;1289;544721;-76
2023/09/02 07:11:23;;;;;;;4.20;1.90;;;;;;;;;;104104;1289;545601;-77
2023/09/02 07:15:06;;;;;;;3.00;1.60;;;;;;;;;;103340;1294;547809;-79
2023/09/02 07:18:38;;;;;;;4.50;1.70;;;;;;;;;;103760;1298;544957;-75
2023/09/02 07:22:21;;;;;;;3.50;1.70;;;;;;;;;;103674;1289;548061;-80
2023/09/02 07:25:53;;;;;;;4.10;2.00;;;;;;;;;;103714;1292;546697;-76
2023/09/02 07:29:36;;;;;;;3.90;1.70;;;;;;;;;;103885;1288;548036;-75
2023/09/02 07:33:08;;;;;;;4.80;1.80;;;;;;;;;;103761;1292;545084;-77
2023/09/02 07:36:47;;;;;;;3.70;1.70;;;;;;;;;;103700;1295;545297;-79
2023/09/02 07:40:19;;;;;;;3.70;1.70;;;;;;;;;;103544;1294;545909;-78
2023/09/02 07:44:08;;;;;;;2.80;1.60;;;;;;;;;;103696;1292;548522;-76
2023/09/02 07:47:45;;;;;;;3.00;1.70;;;;;;;;;;103290;1295;547795;-78
2023/09/02 07:51:17;;;;;;;3.20;1.80;;;;;;;;;;104023;1289;545396;-81
2023/09/02 07:54:53;;;;;;;4.40;1.80;;;;;;;;;;104048;1289;545694;-81
2023/09/02 07:58:31;;;;;;;3.30;1.70;;;;;;;;;;103997;1288;546014;-76
2023/09/02 08:02:09;;;;;;;3.60;2.10;;;;;;;;;;103802;1293;544819;-78
2023/09/02 08:05:42;;;;;;;3.30;2.00;;;;;;;;;;104141;1289;545499;-79
2023/09/02 08:09:25;;;;;;;3.80;1.80;;;;;;;;;;103719;1291;545450;-77
2023/09/02 08:13:02;;;;;;;3.30;1.80;;;;;;;;;;103746;1291;544884;-76
2023/09/02 08:16:40;;;;;;;4.30;2.40;;;;;;;;;;103779;1301;545578;-76
2023/09/02 08:20:23;;;;;;;5.50;2.50;;;;;;;;;;103651;1291;548015;-79
2023/09/02 08:23:55;;;;;;;4.30;2.10;;;;;;;;;;103715;1295;544923;-76
2023/09/02 08:27:32;;;;;;;4.40;2.00;;;;;;;;;;103505;1298;545381;-76
2023/09/02 08:31:11;;;;;;;3.40;1.60;;;;;;;;;;103659;1292;544942;-75
2023/09/02 08:34:47;;;;;;;3.70;1.90;;;;;;;;;;103761;1291;544768;-76
2023/09/02 08:38:25;;;;;;;3.00;1.70;;;;;;;;;;103723;1302;545391;-75
2023/09/02 08:42:02;;;;;;;3.30;1.80;;;;;;;;;;104089;1288;545023;-76
2023/09/02 08:45:41;;;;;;;3.00;1.90;;;;;;;;;;103751;1292;544998;-80
2023/09/02 08:49:18;;;;;;;3.20;1.80;;;;;;;;;;104124;1289;545804;-77
2023/09/02 08:53:00;;;;;;;3.90;2.10;;;;;;;;;;103617;1294;547859;-77
2023/09/02 08:56:41;;;;;;;4.40;2.20;;;;;;;;;;103575;1292;547998;-78
2023/09/02 09:00:09;;;;;;;2.90;1.90;;;;;;;;;;103640;1295;545050;-73
2023/09/02 09:03:56;;;;;;;4.40;2.40;;;;;;;;;;104064;1292;544846;-77
2023/09/02 09:07:25;;;;;;;3.00;1.80;;;;;;;;;;103767;1291;545504;-76
2023/09/02 09:11:04;;;;;;;5.60;2.30;;;;;;;;;;103766;1295;545242;-77
2023/09/02 09:14:43;;;;;;;3.90;1.60;;;;;;;;;;103719;1291;544920;-76
2023/09/02 09:18:18;;;;;;;3.50;2.30;;;;;;;;;;103838;1289;544989;-76
2023/09/02 09:21:55;;;;;;;4.20;2.50;;;;;;;;;;103632;1291;544781;-75
2023/09/02 09:25:31;;;;;;;4.40;2.40;;;;;;;;;;104270;1287;544972;-78
2023/09/02 09:29:14;;;;;;;4.50;2.90;;;;;;;;;;103701;1292;545471;-76
2023/09/02 09:32:56;;;;;;;4.30;2.70;;;;;;;;;;103707;1292;544979;-75
2023/09/02 09:36:24;;;;;;;3.90;2.10;;;;;;;;;;103757;1289;544727;-77
2023/09/02 09:40:02;;;;;;;4.70;2.50;;;;;;;;;;103745;1289;544967;-77
2023/09/02 09:44:01;;;;;;;5.60;2.90;;;;;;;;;;103558;1295;548263;-77
2023/09/02 09:47:16;;;;;;;4.60;2.70;;;;;;;;;;103936;1289;544886;-76
2023/09/02 09:50:55;;;;;;;5.00;2.80;;;;;;;;;;104838;1282;545253;-77
2023/09/02 09:54:37;;;;;;;4.30;2.20;;;;;;;;;;103515;1292;547947;-77
2023/09/02 09:58:09;;;;;;;3.50;2.00;;;;;;;;;;103729;1290;545443;-79
2023/09/02 10:01:46;;;;;;;5.10;2.60;;;;;;;;;;104020;1288;545150;-76
2023/09/02 10:05:28;;;;;;;5.90;3.30;;;;;;;;;;103749;1300;544698;-72
2023/09/02 10:09:01;;;;;;;5.80;3.40;;;;;;;;;;103717;1292;545520;-74
2023/09/02 10:12:39;;;;;;;5.00;2.60;;;;;;;;;;103856;1288;545786;-76
2023/09/02 10:16:16;;;;;;;4.80;3.00;;;;;;;;;;103744;1292;545408;-76
2023/09/02 10:19:59;;;;;;;4.60;2.50;;;;;;;;;;103601;1291;547778;-77
2023/09/02 10:23:32;;;;;;;5.00;3.00;;;;;;;;;;103731;1291;544961;-76
2023/09/02 10:27:17;;;;;;;5.10;3.20;;;;;;;;;;103806;1289;546412;-75
2023/09/02 10:30:48;;;;;;;4.70;3.00;;;;;;;;;;103795;1289;545402;-75
2023/09/02 10:34:31;;;;;;;5.40;2.90;;;;;;;;;;103802;1290;544983;-75
2023/09/02 10:38:02;;;;;;;9.30;2.70;;;;;;;;;;103775;1292;545137;-76
2023/09/02 10:41:39;;;;;;;4.90;2.70;;;;;;;;;;103807;1292;544710;-77
2023/09/02 10:45:19;;;;;;;6.00;3.20;;;;;;;;;;103937;1290;544845;-76
2023/09/02 10:48:56;;;;;;;6.10;3.60;;;;;;;;;;103737;1288;547998;-75
2023/09/02 10:52:31;;;;;;;5.10;3.20;;;;;;;;;;103671;1292;544798;-75
2023/09/02 10:56:08;;;;;;;5.80;3.60;;;;;;;;;;103626;1291;545021;-78
2023/09/02 10:59:46;;;;;;;5.40;3.50;;;;;;;;;;103749;1295;544777;-76
2023/09/02 11:03:49;;;;;;;5.60;3.00;;;;;;;;;;103661;1289;547890;-75
2023/09/02 11:07:19;;;;;;;7.20;4.10;;;;;;;;;;104243;1289;545406;-75
2023/09/02 11:21:01;;;;;;;4.70;2.80;;;;;;;;;;104833;1282;549807;-76
2023/09/02 11:24:14;;;;;;;5.80;3.50;;;;;;;;;;104891;1279;547973;-74
2023/09/02 11:27:45;;;;;;;5.70;3.90;;;;;;;;;;103648;1295;545134;-73
2023/09/02 11:31:12;;;;;;;5.90;3.50;;;;;;;;;;104077;1291;545272;-73
2023/09/02 11:34:46;;;;;;;4.70;2.90;;;;;;;;;;103685;1294;545582;-75
2023/09/02 11:38:24;;;;;;;6.30;3.30;;;;;;;;;;103891;1289;544811;-75
2023/09/02 11:42:12;;;;;;;6.20;4.30;;;;;;;;;;103774;1292;545018;-76
2023/09/02 11:45:39;;;;;;;6.10;4.00;;;;;;;;;;103766;1292;545336;-75
2023/09/02 11:49:26;;;;;;;6.60;3.60;;;;;;;;;;104018;1290;545164;-73
2023/09/02 11:52:55;;;;;;;6.60;3.80;;;;;;;;;;103821;1289;545274;-76
2023/09/02 11:56:31;;;;;;;7.60;4.00;;;;;;;;;;103605;1301;545062;-76
2023/09/02 12:00:13;;;;;;;6.30;4.00;;;;;;;;;;104075;1290;545287;-74
2023/09/02 12:03:46;;;;;;;6.70;4.40;;;;;;;;;;103721;1289;544987;-75
2023/09/02 12:07:23;;;;;;;10.20;7.70;;;;;;;;;;103772;1289;545018;-75
2023/09/02 12:11:02;;;;;;;5.90;3.50;;;;;;;;;;103778;1289;544906;-75
2023/09/02 12:14:47;;;;;;;5.30;3.30;;;;;;;;;;103755;1289;544977;-73
2023/09/02 12:18:25;;;;;;;6.60;3.90;;;;;;;;;;103511;1295;545060;-74
2023/09/02 12:21:59;;;;;;;5.30;3.10;;;;;;;;;;103702;1292;545052;-75
2023/09/02 12:26:05;;;;;;;5.90;3.70;;;;;;;;;;103674;1289;547787;-77
2023/09/02 12:29:21;;;;;;;5.90;3.90;;;;;;;;;;103933;1292;545057;-74
2023/09/02 12:32:52;;;;;;;6.10;3.60;;;;;;;;;;104049;1291;544961;-74
2023/09/02 12:36:35;;;;;;;6.90;4.30;;;;;;;;;;103554;1291;548155;-74
2023/09/02 12:40:13;;;;;;;6.50;4.30;;;;;;;;;;103643;1292;548923;-76
2023/09/02 12:43:44;;;;;;;6.20;4.10;;;;;;;;;;103790;1295;545514;-75
2023/09/02 12:47:27;;;;;;;5.80;3.30;;;;;;;;;;103453;1292;547996;-77
2023/09/02 12:50:55;;;;;;;8.60;3.80;;;;;;;;;;104053;1293;545041;-74
2023/09/02 12:54:38;;;;;;;5.50;3.10;;;;;;;;;;103714;1297;544788;-75
2023/09/02 12:58:15;;;;;;;6.90;4.60;;;;;;;;;;103783;1289;546171;-76
2023/09/02 13:01:52;;;;;;;4.80;3.30;;;;;;;;;;103744;1291;546045;-79
2023/09/02 13:05:30;;;;;;;5.20;3.20;;;;;;;;;;103833;1289;546186;-75
2023/09/02 13:09:07;;;;;;;6.70;4.10;;;;;;;;;;103650;1291;546025;-75
2023/09/02 13:12:46;;;;;;;12.20;8.30;;;;;;;;;;103896;1288;545003;-74
2023/09/02 13:16:24;;;;;;;7.20;3.90;;;;;;;;;;103753;1289;545683;-75
2023/09/02 13:20:00;;;;;;;4.80;2.70;;;;;;;;;;103913;1288;545056;-75
2023/09/02 13:23:37;;;;;;;6.90;3.20;;;;;;;;;;103741;1295;545111;-74
2023/09/02 13:27:12;;;;;;;5.80;3.60;;;;;;;;;;103732;1293;544975;-75
2023/09/02 13:30:55;;;;;;;4.10;2.30;;;;;;;;;;103757;1290;544976;-74
2023/09/02 13:34:33;;;;;;;4.10;2.10;;;;;;;;;;103828;1289;545285;-77
2023/09/02 13:38:14;;;;;;;4.80;2.80;;;;;;;;;;103622;1290;545089;-74
2023/09/02 13:41:47;;;;;;;5.20;3.00;;;;;;;;;;103685;1291;545040;-74
2023/09/02 13:45:28;;;;;;;4.70;2.40;;;;;;;;;;103716;1291;544994;-77
2023/09/02 13:49:03;;;;;;;15.10;11.50;;;;;;;;;;103840;1292;544828;-76
2023/09/02 13:52:39;;;;;;;8.00;4.80;;;;;;;;;;103764;1289;544930;-74
2023/09/02 13:56:17;;;;;;;5.40;3.20;;;;;;;;;;103714;1291;545605;-74
2023/09/02 14:00:29;;;;;;;4.20;2.40;;;;;;;;;;103560;1292;551655;-77
2023/09/02 14:14:19;;;;;;;4.90;2.30;;;;;;;;;;106836;1259;550149;-73
2023/09/02 14:17:14;;;;;;;3.70;2.10;;;;;;;;;;103625;1295;546824;-76
2023/09/02 14:20:56;;;;;;;4.00;2.20;;;;;;;;;;103788;1291;545516;-77
2023/09/02 14:24:26;;;;;;;4.70;2.00;;;;;;;;;;103607;1292;547899;-76
2023/09/02 14:28:02;;;;;;;4.60;2.40;;;;;;;;;;103881;1289;544763;-74
2023/09/02 14:31:46;;;;;;;3.90;2.20;;;;;;;;;;103589;1292;547730;-77
2023/09/02 14:35:16;;;;;;;3.60;2.00;;;;;;;;;;103781;1292;544920;-75
2023/09/02 14:38:54;;;;;;;3.50;2.40;;;;;;;;;;103747;1292;544756;-74
2023/09/02 14:42:32;;;;;;;3.00;1.60;;;;;;;;;;103924;1288;545837;-75
2023/09/02 14:46:09;;;;;;;3.60;2.10;;;;;;;;;;103540;1295;544964;-75
2023/09/02 14:49:42;;;;;;;4.20;2.60;;;;;;;;;;103838;1301;544805;-74
2023/09/02 14:53:21;;;;;;;4.80;2.60;;;;;;;;;;103701;1293;545101;-74
2023/09/02 14:57:04;;;;;;;3.80;2.20;;;;;;;;;;104003;1291;544954;-75
2023/09/02 15:01:00;;;;;;;5.20;2.60;;;;;;;;;;103796;1292;548046;-74
2023/09/02 15:04:22;;;;;;;4.40;2.20;;;;;;;;;;103616;1292;544816;-75
2023/09/02 15:08:00;;;;;;;3.00;1.60;;;;;;;;;;103690;1288;547946;-73
2023/09/02 15:11:35;;;;;;;4.50;2.00;;;;;;;;;;103754;1291;544704;-75
2023/09/02 15:15:19;;;;;;;4.40;2.40;;;;;;;;;;103570;1292;547987;-75
2023/09/02 15:18:48;;;;;;;3.80;2.10;;;;;;;;;;103777;1288;544968;-75
2023/09/02 15:22:26;;;;;;;3.90;2.40;;;;;;;;;;103773;1292;544965;-75
2023/09/02 15:26:04;;;;;;;3.70;1.90;;;;;;;;;;103489;1295;545274;-77
2023/09/02 15:29:41;;;;;;;4.70;2.40;;;;;;;;;;103796;1289;544806;-74
2023/09/02 15:33:19;;;;;;;4.70;1.80;;;;;;;;;;103855;1291;545341;-77
2023/09/02 15:36:56;;;;;;;3.50;1.50;;;;;;;;;;103773;1291;545829;-75
2023/09/02 15:40:34;;;;;;;3.00;1.70;;;;;;;;;;103759;1292;544774;-74
2023/09/02 15:44:11;;;;;;;4.00;2.00;;;;;;;;;;103759;1292;544989;-76
2023/09/02 15:47:48;;;;;;;5.40;2.10;;;;;;;;;;103823;1292;546015;-72
2023/09/02 15:51:26;;;;;;;3.20;1.80;;;;;;;;;;103769;1291;545743;-74
2023/09/02 15:55:04;;;;;;;5.00;2.50;;;;;;;;;;103848;1295;545361;-75
2023/09/02 15:58:40;;;;;;;4.00;2.30;;;;;;;;;;103715;1289;545055;-76
2023/09/02 16:02:24;;;;;;;3.90;2.00;;;;;;;;;;103446;1292;547912;-75
2023/09/02 16:05:56;;;;;;;3.20;1.90;;;;;;;;;;103767;1291;545366;-74
2023/09/02 16:09:33;;;;;;;3.70;2.20;;;;;;;;;;103776;1291;544957;-74
2023/09/02 16:13:11;;;;;;;3.40;1.70;;;;;;;;;;103865;1295;544898;-74
2023/09/02 16:16:58;;;;;;;4.00;2.20;;;;;;;;;;103210;1298;547985;-74
2023/09/02 16:30:48;;;;;;;4.50;2.00;;;;;;;;;;104759;1285;549652;-72
2023/09/02 16:33:40;;;;;;;4.40;2.30;;;;;;;;;;103840;1289;544938;-75
2023/09/02 16:37:17;;;;;;;5.70;3.10;;;;;;;;;;103849;1289;545870;-76
2023/09/02 16:40:56;;;;;;;6.50;2.90;;;;;;;;;;103748;1291;544946;-76
2023/09/02 16:44:32;;;;;;;6.00;3.10;;;;;;;;;;103903;1289;544605;-76
2023/09/02 16:48:13;;;;;;;7.60;4.20;;;;;;;;;;104558;1289;544798;-77
2023/09/02 16:51:43;;;;;;;5.90;3.20;;;;;;;;;;103840;1289;545024;-78
2023/09/02 16:55:27;;;;;;;6.80;3.20;;;;;;;;;;103520;1298;545541;-76
2023/09/02 16:59:04;;;;;;;9.50;3.50;;;;;;;;;;103734;1295;544752;-74
2023/09/02 17:02:42;;;;;;;5.30;2.40;;;;;;;;;;103528;1295;545381;-77
2023/09/02 17:06:23;;;;;;;7.50;3.00;;;;;;;;;;103768;1294;544956;-74
2023/09/02 17:09:55;;;;;;;6.60;3.40;;;;;;;;;;103829;1289;545958;-77
2023/09/02 17:13:34;;;;;;;6.60;3.40;;;;;;;;;;103623;1292;544900;-75
2023/09/02 17:17:11;;;;;;;6.10;3.20;;;;;;;;;;104038;1292;544845;-75
2023/09/02 17:20:44;;;;;;;7.60;3.30;;;;;;;;;;103892;1289;546598;-78
2023/09/02 17:24:27;;;;;;;9.40;3.70;;;;;;;;;;103838;1292;544755;-74
2023/09/02 17:28:08;;;;;;;6.20;3.50;;;;;;;;;;103691;1292;544593;-76
2023/09/02 17:31:42;;;;;;;8.30;4.50;;;;;;;;;;103749;1290;544787;-74
2023/09/02 17:35:20;;;;;;;11.90;8.50;;;;;;;;;;103901;1292;544792;-77
2023/09/02 17:38:57;;;;;;;12.20;8.10;;;;;;;;;;103784;1289;545515;-75
2023/09/02 17:42:42;;;;;;;10.40;6.70;;;;;;;;;;103632;1292;547852;-76
2023/09/02 17:46:08;;;;;;;7.70;4.80;;;;;;;;;;103866;1290;545106;-75
2023/09/02 17:49:50;;;;;;;13.40;8.30;;;;;;;;;;103723;1294;545063;-74
2023/09/02 17:53:24;;;;;;;18.00;11.20;;;;;;;;;;103733;1295;545579;-79
2023/09/02 17:57:06;;;;;;;14.30;8.90;;;;;;;;;;103926;1289;544951;-74
2023/09/02 18:00:44;;;;;;;30.00;21.90;;;;;;;;;;103735;1303;544886;-74
2023/09/02 18:04:21;;;;;;;54.20;45.60;;;;;;;;;;103803;1296;544813;-74
2023/09/02 18:07:55;;;;;;;44.40;37.20;;;;;;;;;;103892;1288;545851;-74
2023/09/02 18:11:43;;;;;;;25.40;18.90;;;;;;;;;;103628;1291;547834;-74
2023/09/02 18:15:14;;;;;;;15.10;10.30;;;;;;;;;;103708;1294;544896;-75
2023/09/02 18:18:53;;;;;;;12.80;9.30;;;;;;;;;;103775;1290;545002;-75
2023/09/02 18:22:30;;;;;;;30.90;22.10;;;;;;;;;;103861;1289;545241;-78
2023/09/02 18:26:03;;;;;;;21.60;16.50;;;;;;;;;;103942;1301;544922;-78
2023/09/02 18:29:46;;;;;;;15.30;10.20;;;;;;;;;;104118;1300;545777;-74
2023/09/02 18:33:24;;;;;;;14.40;9.50;;;;;;;;;;103761;1292;545386;-74
2023/09/02 18:37:00;;;;;;;11.60;8.40;;;;;;;;;;103816;1288;544834;-75
2023/09/02 18:40:43;;;;;;;9.80;6.80;;;;;;;;;;103771;1300;547969;-78
2023/09/02 18:44:16;;;;;;;29.00;21.10;;;;;;;;;;103732;1295;545580;-74
2023/09/02 18:47:54;;;;;;;35.30;24.50;;;;;;;;;;103481;1294;544934;-75
2023/09/02 18:51:30;;;;;;;36.90;26.30;;;;;;;;;;103536;1298;545185;-73
2023/09/02 18:55:04;;;;;;;29.80;20.10;;;;;;;;;;103732;1292;545040;-74
2023/09/02 18:58:47;;;;;;;13.50;7.90;;;;;;;;;;103802;1288;544827;-75
2023/09/02 19:02:24;;;;;;;13.10;7.90;;;;;;;;;;103725;1292;544886;-75
2023/09/02 19:06:02;;;;;;;12.80;8.40;;;;;;;;;;103736;1291;544970;-74
2023/09/02 19:09:39;;;;;;;13.10;8.70;;;;;;;;;;104027;1289;544741;-74
2023/09/02 19:13:22;;;;;;;14.50;9.50;;;;;;;;;;103575;1291;547950;-75
2023/09/02 19:16:56;;;;;;;12.80;8.40;;;;;;;;;;103692;1289;544783;-78
2023/09/02 19:20:32;;;;;;;9.60;6.10;;;;;;;;;;103725;1291;544962;-74
2023/09/02 19:24:09;;;;;;;8.20;4.30;;;;;;;;;;104054;1286;546427;-74
2023/09/02 19:27:48;;;;;;;8.20;4.40;;;;;;;;;;103792;1289;544933;-79
2023/09/02 19:31:27;;;;;;;7.80;4.00;;;;;;;;;;103617;1292;545763;-78
2023/09/02 19:35:09;;;;;;;18.70;11.70;;;;;;;;;;103789;1290;544812;-76
2023/09/02 19:38:39;;;;;;;14.30;9.70;;;;;;;;;;103384;1294;545039;-77
2023/09/02 19:42:15;;;;;;;14.70;9.70;;;;;;;;;;103732;1291;545384;-75
2023/09/02 19:46:02;;;;;;;14.00;9.40;;;;;;;;;;103598;1292;544863;-75
2023/09/02 19:49:32;;;;;;;25.20;16.70;;;;;;;;;;103568;1292;545128;-74
2023/09/02 19:53:09;;;;;;;18.60;13.30;;;;;;;;;;103735;1290;545007;-74
2023/09/02 19:56:46;;;;;;;21.30;15.00;;;;;;;;;;103767;1291;544742;-75
2023/09/02 20:00:29;;;;;;;12.60;7.90;;;;;;;;;;103574;1292;547904;-76
2023/09/02 20:04:03;;;;;;;11.00;7.30;;;;;;;;;;103737;1292;545345;-75
2023/09/02 20:07:38;;;;;;;8.90;5.50;;;;;;;;;;103810;1290;545099;-74
2023/09/02 20:11:12;;;;;;;8.30;4.40;;;;;;;;;;103967;1289;544953;-75
2023/09/02 20:14:58;;;;;;;9.10;4.30;;;;;;;;;;103869;1291;544749;-75
2023/09/02 20:18:32;;;;;;;6.90;4.00;;;;;;;;;;103724;1289;544910;-74
2023/09/02 20:22:09;;;;;;;6.70;3.80;;;;;;;;;;103626;1295;545002;-74
2023/09/02 20:25:50;;;;;;;7.50;3.80;;;;;;;;;;103825;1292;544878;-76
2023/09/02 20:29:27;;;;;;;7.40;3.70;;;;;;;;;;103926;1291;545036;-74
2023/09/02 20:33:01;;;;;;;9.50;4.60;;;;;;;;;;103560;1294;544935;-79
2023/09/02 20:36:35;;;;;;;8.10;4.60;;;;;;;;;;103817;1292;544699;-74
2023/09/02 20:40:19;;;;;;;7.60;4.20;;;;;;;;;;103838;1292;544713;-74
2023/09/02 20:43:55;;;;;;;7.10;4.30;;;;;;;;;;104049;1286;544987;-74
2023/09/02 20:47:33;;;;;;;6.50;4.00;;;;;;;;;;103711;1295;545210;-74
2023/09/02 20:51:16;;;;;;;6.80;4.10;;;;;;;;;;103457;1294;547797;-75
2023/09/02 20:54:50;;;;;;;8.00;4.50;;;;;;;;;;103723;1289;545563;-77
2023/09/02 20:58:24;;;;;;;9.30;4.70;;;;;;;;;;103734;1291;545763;-75
2023/09/02 21:02:03;;;;;;;7.50;4.50;;;;;;;;;;103724;1289;546100;-75
2023/09/02 21:05:40;;;;;;;7.80;4.70;;;;;;;;;;103749;1291;545661;-75
2023/09/02 21:09:17;;;;;;;9.60;5.30;;;;;;;;;;103746;1292;545595;-75
2023/09/02 21:12:55;;;;;;;8.20;4.10;;;;;;;;;;103802;1289;545253;-76
2023/09/02 21:16:38;;;;;;;7.50;4.70;;;;;;;;;;103634;1292;548046;-75
2023/09/02 21:20:10;;;;;;;7.60;4.50;;;;;;;;;;103806;1292;544740;-78
2023/09/02 21:23:48;;;;;;;7.30;4.30;;;;;;;;;;103758;1289;544994;-74
2023/09/02 21:27:27;;;;;;;7.90;4.70;;;;;;;;;;104120;1286;548081;-74
2023/09/02 21:31:03;;;;;;;7.70;4.60;;;;;;;;;;103898;1292;545411;-76